sensor_id;sensor_type;location;lat;lon;timestamp;pressure;altitude;pressure_sealevel;temperature;humidity
60240;BME280;46102;39.012;-7.064;2022-12-18T00:00:43;99143.44;;;9.89;98.33
60240;BME280;46102;39.012;-7.064;2022-12-18T00:02:44;99136.31;;;9.88;98.24
60240;BME280;46102;39.012;-7.064;2022-12-18T00:04:45;99136.31;;;9.88;98.03
60240;BME280;46102;39.012;-7.064;2022-12-18T00:06:45;99139.56;;;9.90;97.66
60240;BME280;46102;39.012;-7.064;2022-12-18T00:08:47;99139.03;;;9.88;97.19
60240;BME280;46102;39.012;-7.064;2022-12-18T00:10:48;99133.56;;;9.88;97.18
60240;BME280;46102;39.012;-7.064;2022-12-18T00:12:48;99138.84;;;9.84;96.67
60240;BME280;46102;39.012;-7.064;2022-12-18T00:14:49;99136.09;;;9.84;96.77
60240;BME280;46102;39.012;-7.064;2022-12-18T00:16:50;99134.16;;;9.85;96.01
60240;BME280;46102;39.012;-7.064;2022-12-18T00:18:53;99135.25;;;9.84;96.11
60240;BME280;46102;39.012;-7.064;2022-12-18T00:20:59;99137.00;;;9.79;95.76
60240;BME280;46102;39.012;-7.064;2022-12-18T00:23:01;99137.56;;;9.76;95.61
60240;BME280;46102;39.012;-7.064;2022-12-18T00:25:01;99144.19;;;9.75;95.70
60240;BME280;46102;39.012;-7.064;2022-12-18T00:27:02;99135.97;;;9.75;95.38
60240;BME280;46102;39.012;-7.064;2022-12-18T00:29:06;99138.69;;;9.75;95.46
60240;BME280;46102;39.012;-7.064;2022-12-18T00:31:10;99137.66;;;9.71;95.26
60240;BME280;46102;39.012;-7.064;2022-12-18T00:33:11;99132.25;;;9.66;94.73
60240;BME280;46102;39.012;-7.064;2022-12-18T00:35:12;99141.06;;;9.63;95.02
60240;BME280;46102;39.012;-7.064;2022-12-18T00:37:12;99138.41;;;9.58;95.35
60240;BME280;46102;39.012;-7.064;2022-12-18T00:39:13;99135.94;;;9.56;95.90
60240;BME280;46102;39.012;-7.064;2022-12-18T00:41:15;99142.25;;;9.57;96.14
60240;BME280;46102;39.012;-7.064;2022-12-18T00:43:35;99138.69;;;9.56;96.44
60240;BME280;46102;39.012;-7.064;2022-12-18T00:45:36;99137.59;;;9.57;96.30
60240;BME280;46102;39.012;-7.064;2022-12-18T00:47:37;99129.38;;;9.57;96.64
60240;BME280;46102;39.012;-7.064;2022-12-18T00:49:38;99130.19;;;9.58;96.74
60240;BME280;46102;39.012;-7.064;2022-12-18T00:51:38;99128.56;;;9.57;96.92
60240;BME280;46102;39.012;-7.064;2022-12-18T00:53:39;99122.56;;;9.55;97.15
60240;BME280;46102;39.012;-7.064;2022-12-18T00:55:42;99122.63;;;9.50;97.04
60240;BME280;46102;39.012;-7.064;2022-12-18T00:57:43;99122.09;;;9.48;97.55
60240;BME280;46102;39.012;-7.064;2022-12-18T00:59:44;99115.28;;;9.45;97.21
60240;BME280;46102;39.012;-7.064;2022-12-18T01:01:45;99119.97;;;9.45;97.79
60240;BME280;46102;39.012;-7.064;2022-12-18T01:03:46;99121.09;;;9.44;97.54
60240;BME280;46102;39.012;-7.064;2022-12-18T01:05:47;99125.44;;;9.45;97.06
60240;BME280;46102;39.012;-7.064;2022-12-18T01:07:48;99117.50;;;9.43;97.33
60240;BME280;46102;39.012;-7.064;2022-12-18T01:09:49;99121.66;;;9.41;97.39
60240;BME280;46102;39.012;-7.064;2022-12-18T01:11:49;99120.63;;;9.36;97.63
60240;BME280;46102;39.012;-7.064;2022-12-18T01:13:52;99118.19;;;9.35;97.69
60240;BME280;46102;39.012;-7.064;2022-12-18T01:15:53;99126.78;;;9.28;97.70
60240;BME280;46102;39.012;-7.064;2022-12-18T01:17:54;99133.66;;;9.26;97.83
60240;BME280;46102;39.012;-7.064;2022-12-18T01:19:54;99127.94;;;9.22;97.87
60240;BME280;46102;39.012;-7.064;2022-12-18T01:21:55;99139.13;;;9.26;98.11
60240;BME280;46102;39.012;-7.064;2022-12-18T01:23:56;99141.34;;;9.24;97.99
60240;BME280;46102;39.012;-7.064;2022-12-18T01:25:57;99143.84;;;9.20;98.76
60240;BME280;46102;39.012;-7.064;2022-12-18T01:27:58;99143.91;;;9.15;98.41
60240;BME280;46102;39.012;-7.064;2022-12-18T01:29:59;99143.69;;;9.11;99.16
60240;BME280;46102;39.012;-7.064;2022-12-18T01:32:00;99153.81;;;9.11;98.84
60240;BME280;46102;39.012;-7.064;2022-12-18T01:34:04;99155.22;;;9.08;99.24
60240;BME280;46102;39.012;-7.064;2022-12-18T01:36:06;99158.47;;;9.10;99.09
60240;BME280;46102;39.012;-7.064;2022-12-18T01:38:06;99154.09;;;9.09;99.29
60240;BME280;46102;39.012;-7.064;2022-12-18T01:40:08;99154.41;;;9.08;99.37
60240;BME280;46102;39.012;-7.064;2022-12-18T01:42:11;99162.66;;;9.03;99.56
60240;BME280;46102;39.012;-7.064;2022-12-18T01:46:47;99152.31;;;9.00;99.58
60240;BME280;46102;39.012;-7.064;2022-12-18T01:48:51;99165.47;;;8.98;99.64
60240;BME280;46102;39.012;-7.064;2022-12-18T01:50:54;99166.59;;;8.96;100.00
60240;BME280;46102;39.012;-7.064;2022-12-18T01:53:00;99159.72;;;8.99;100.00
60240;BME280;46102;39.012;-7.064;2022-12-18T01:55:04;99161.66;;;8.99;99.74
60240;BME280;46102;39.012;-7.064;2022-12-18T01:57:05;99163.25;;;9.00;99.98
60240;BME280;46102;39.012;-7.064;2022-12-18T01:59:09;99167.34;;;9.02;99.87
60240;BME280;46102;39.012;-7.064;2022-12-18T02:01:11;99178.28;;;9.02;99.67
60240;BME280;46102;39.012;-7.064;2022-12-18T02:03:12;99173.41;;;8.99;99.67
60240;BME280;46102;39.012;-7.064;2022-12-18T02:05:16;99170.13;;;8.97;100.00
60240;BME280;46102;39.012;-7.064;2022-12-18T02:09:33;99172.59;;;8.99;99.37
60240;BME280;46102;39.012;-7.064;2022-12-18T02:14:07;99166.53;;;9.02;98.71
60240;BME280;46102;39.012;-7.064;2022-12-18T02:18:38;99159.13;;;9.02;99.03
60240;BME280;46102;39.012;-7.064;2022-12-18T02:20:47;99165.72;;;9.01;98.92
60240;BME280;46102;39.012;-7.064;2022-12-18T02:23:00;99167.63;;;9.01;99.04
60240;BME280;46102;39.012;-7.064;2022-12-18T02:25:28;99173.13;;;9.01;98.97
60240;BME280;46102;39.012;-7.064;2022-12-18T02:27:37;99178.06;;;8.99;98.78
60240;BME280;46102;39.012;-7.064;2022-12-18T02:29:48;99172.94;;;8.92;99.63
60240;BME280;46102;39.012;-7.064;2022-12-18T02:31:57;99172.69;;;8.88;100.00
60240;BME280;46102;39.012;-7.064;2022-12-18T02:34:02;99165.59;;;8.87;100.00
60240;BME280;46102;39.012;-7.064;2022-12-18T02:36:11;99165.59;;;8.87;99.58
60240;BME280;46102;39.012;-7.064;2022-12-18T02:38:14;99170.25;;;8.87;99.88
60240;BME280;46102;39.012;-7.064;2022-12-18T02:40:20;99169.72;;;8.85;100.00
60240;BME280;46102;39.012;-7.064;2022-12-18T02:42:22;99172.44;;;8.85;100.00
60240;BME280;46102;39.012;-7.064;2022-12-18T02:44:23;99174.91;;;8.86;100.00
60240;BME280;46102;39.012;-7.064;2022-12-18T02:46:42;99171.06;;;8.87;100.00
60240;BME280;46102;39.012;-7.064;2022-12-18T02:48:49;99174.09;;;8.86;100.00
60240;BME280;46102;39.012;-7.064;2022-12-18T02:51:11;99179.63;;;8.81;100.00
60240;BME280;46102;39.012;-7.064;2022-12-18T02:58:05;99177.25;;;8.74;100.00
60240;BME280;46102;39.012;-7.064;2022-12-18T03:00:35;99167.91;;;8.75;100.00
60240;BME280;46102;39.012;-7.064;2022-12-18T03:02:57;99172.56;;;8.74;100.00
60240;BME280;46102;39.012;-7.064;2022-12-18T03:05:15;99174.50;;;8.74;100.00
60240;BME280;46102;39.012;-7.064;2022-12-18T03:07:21;99177.53;;;8.72;100.00
60240;BME280;46102;39.012;-7.064;2022-12-18T03:09:34;99175.91;;;8.71;100.00
60240;BME280;46102;39.012;-7.064;2022-12-18T03:11:40;99173.66;;;8.73;100.00
60240;BME280;46102;39.012;-7.064;2022-12-18T03:14:00;99169.03;;;8.74;100.00
60240;BME280;46102;39.012;-7.064;2022-12-18T03:16:05;99160.50;;;8.75;100.00
60240;BME280;46102;39.012;-7.064;2022-12-18T03:18:12;99158.66;;;8.71;100.00
60240;BME280;46102;39.012;-7.064;2022-12-18T03:20:16;99167.09;;;8.74;100.00
60240;BME280;46102;39.012;-7.064;2022-12-18T03:22:18;99165.00;;;8.66;100.00
60240;BME280;46102;39.012;-7.064;2022-12-18T03:24:26;99172.09;;;8.67;100.00
60240;BME280;46102;39.012;-7.064;2022-12-18T03:26:29;99169.41;;;8.62;100.00
60240;BME280;46102;39.012;-7.064;2022-12-18T03:28:38;99172.13;;;8.62;100.00
60240;BME280;46102;39.012;-7.064;2022-12-18T03:30:43;99176.53;;;8.63;100.00
60240;BME280;46102;39.012;-7.064;2022-12-18T03:32:53;99170.78;;;8.65;100.00
60240;BME280;46102;39.012;-7.064;2022-12-18T03:35:00;99174.59;;;8.64;100.00
60240;BME280;46102;39.012;-7.064;2022-12-18T03:37:06;99170.47;;;8.66;100.00
60240;BME280;46102;39.012;-7.064;2022-12-18T03:39:08;99171.59;;;8.65;100.00
60240;BME280;46102;39.012;-7.064;2022-12-18T03:41:31;99172.38;;;8.66;100.00
60240;BME280;46102;39.012;-7.064;2022-12-18T03:46:36;99174.59;;;8.64;100.00
60240;BME280;46102;39.012;-7.064;2022-12-18T03:48:44;99178.44;;;8.63;100.00
60240;BME280;46102;39.012;-7.064;2022-12-18T03:50:57;99188.28;;;8.64;100.00
60240;BME280;46102;39.012;-7.064;2022-12-18T03:55:20;99187.00;;;8.56;100.00
60240;BME280;46102;39.012;-7.064;2022-12-18T03:57:29;99181.75;;;8.60;100.00
60240;BME280;46102;39.012;-7.064;2022-12-18T03:59:32;99181.75;;;8.60;100.00
60240;BME280;46102;39.012;-7.064;2022-12-18T04:01:39;99181.47;;;8.61;100.00
60240;BME280;46102;39.012;-7.064;2022-12-18T04:03:42;99176.81;;;8.62;100.00
60240;BME280;46102;39.012;-7.064;2022-12-18T04:05:45;99179.53;;;8.62;100.00
60240;BME280;46102;39.012;-7.064;2022-12-18T04:07:49;99186.41;;;8.59;100.00
60240;BME280;46102;39.012;-7.064;2022-12-18T04:09:54;99184.47;;;8.60;100.00
60240;BME280;46102;39.012;-7.064;2022-12-18T04:11:57;99186.41;;;8.59;100.00
60240;BME280;46102;39.012;-7.064;2022-12-18T04:13:58;99180.94;;;8.59;100.00
60240;BME280;46102;39.012;-7.064;2022-12-18T04:15:59;99188.59;;;8.57;100.00
60240;BME280;46102;39.012;-7.064;2022-12-18T04:17:59;99188.59;;;8.57;100.00
60240;BME280;46102;39.012;-7.064;2022-12-18T04:20:09;99183.41;;;8.55;100.00
60240;BME280;46102;39.012;-7.064;2022-12-18T04:22:14;99188.88;;;8.55;100.00
60240;BME280;46102;39.012;-7.064;2022-12-18T04:24:18;99194.94;;;8.52;100.00
60240;BME280;46102;39.012;-7.064;2022-12-18T04:26:28;99195.00;;;8.47;100.00
60240;BME280;46102;39.012;-7.064;2022-12-18T04:28:43;99196.94;;;8.47;100.00
60240;BME280;46102;39.012;-7.064;2022-12-18T04:30:44;99195.00;;;8.47;100.00
60240;BME280;46102;39.012;-7.064;2022-12-18T04:32:45;99197.72;;;8.47;100.00
60240;BME280;46102;39.012;-7.064;2022-12-18T04:34:46;99195.88;;;8.43;100.00
60240;BME280;46102;39.012;-7.064;2022-12-18T04:36:47;99190.94;;;8.45;100.00
60240;BME280;46102;39.012;-7.064;2022-12-18T04:38:48;99192.00;;;8.44;100.00
60240;BME280;46102;39.012;-7.064;2022-12-18T04:40:51;99188.75;;;8.42;100.00
60240;BME280;46102;39.012;-7.064;2022-12-18T04:42:58;99188.75;;;8.42;100.00
60240;BME280;46102;39.012;-7.064;2022-12-18T04:44:59;99194.53;;;8.40;100.00
60240;BME280;46102;39.012;-7.064;2022-12-18T04:47:00;99190.09;;;8.39;100.00
60240;BME280;46102;39.012;-7.064;2022-12-18T04:49:01;99189.56;;;8.37;100.00
60240;BME280;46102;39.012;-7.064;2022-12-18T04:51:02;99195.63;;;8.34;100.00
60240;BME280;46102;39.012;-7.064;2022-12-18T04:53:03;99199.44;;;8.33;100.00
60240;BME280;46102;39.012;-7.064;2022-12-18T04:55:04;99190.75;;;8.31;100.00
60240;BME280;46102;39.012;-7.064;2022-12-18T04:57:05;99194.34;;;8.26;100.00
60240;BME280;46102;39.012;-7.064;2022-12-18T04:59:05;99186.94;;;8.27;100.00
60240;BME280;46102;39.012;-7.064;2022-12-18T05:01:07;99186.94;;;8.27;100.00
60240;BME280;46102;39.012;-7.064;2022-12-18T05:03:08;99190.22;;;8.29;100.00
60240;BME280;46102;39.012;-7.064;2022-12-18T05:05:08;99188.00;;;8.31;100.00
60240;BME280;46102;39.012;-7.064;2022-12-18T05:07:09;99189.09;;;8.30;100.00
60240;BME280;46102;39.012;-7.064;2022-12-18T05:09:10;99195.69;;;8.29;100.00
60240;BME280;46102;39.012;-7.064;2022-12-18T05:11:13;99186.94;;;8.27;100.00
60240;BME280;46102;39.012;-7.064;2022-12-18T05:13:16;99188.34;;;8.24;100.00
60240;BME280;46102;39.012;-7.064;2022-12-18T05:15:16;99190.25;;;8.24;100.00
60240;BME280;46102;39.012;-7.064;2022-12-18T05:17:17;99189.44;;;8.23;100.00
60240;BME280;46102;39.012;-7.064;2022-12-18T05:19:18;99177.94;;;8.26;100.00
60240;BME280;46102;39.012;-7.064;2022-12-18T05:21:19;99182.34;;;8.22;100.00
60240;BME280;46102;39.012;-7.064;2022-12-18T05:23:21;99183.16;;;8.23;100.00
60240;BME280;46102;39.012;-7.064;2022-12-18T05:25:23;99182.34;;;8.22;100.00
60240;BME280;46102;39.012;-7.064;2022-12-18T05:27:24;99195.47;;;8.20;100.00
60240;BME280;46102;39.012;-7.064;2022-12-18T05:29:25;99191.63;;;8.21;100.00
60240;BME280;46102;39.012;-7.064;2022-12-18T05:31:26;99198.22;;;8.20;100.00
60240;BME280;46102;39.012;-7.064;2022-12-18T05:33:29;99200.63;;;8.22;100.00
60240;BME280;46102;39.012;-7.064;2022-12-18T05:35:30;99200.94;;;8.20;100.00
60240;BME280;46102;39.012;-7.064;2022-12-18T05:37:31;99199.28;;;8.19;100.00
60240;BME280;46102;39.012;-7.064;2022-12-18T05:39:31;99199.28;;;8.19;100.00
60240;BME280;46102;39.012;-7.064;2022-12-18T05:41:32;99199.59;;;8.18;100.00
60240;BME280;46102;39.012;-7.064;2022-12-18T05:43:37;99198.50;;;8.19;100.00
60240;BME280;46102;39.012;-7.064;2022-12-18T05:45:38;99209.41;;;8.19;100.00
60240;BME280;46102;39.012;-7.064;2022-12-18T05:47:39;99207.50;;;8.19;100.00
60240;BME280;46102;39.012;-7.064;2022-12-18T05:49:40;99207.50;;;8.19;100.00
60240;BME280;46102;39.012;-7.064;2022-12-18T05:51:40;99222.00;;;8.20;100.00
60240;BME280;46102;39.012;-7.064;2022-12-18T05:53:42;99209.41;;;8.19;100.00
60240;BME280;46102;39.012;-7.064;2022-12-18T05:55:43;99217.91;;;8.17;100.00
60240;BME280;46102;39.012;-7.064;2022-12-18T05:57:44;99220.63;;;8.17;100.00
60240;BME280;46102;39.012;-7.064;2022-12-18T05:59:45;99221.47;;;8.18;100.00
60240;BME280;46102;39.012;-7.064;2022-12-18T06:01:46;99234.03;;;8.19;100.00
60240;BME280;46102;39.012;-7.064;2022-12-18T06:03:47;99225.28;;;8.17;100.00
60240;BME280;46102;39.012;-7.064;2022-12-18T06:05:47;99235.13;;;8.18;100.00
60240;BME280;46102;39.012;-7.064;2022-12-18T06:07:48;99237.34;;;8.16;100.00
60240;BME280;46102;39.012;-7.064;2022-12-18T06:09:49;99233.78;;;8.15;100.00
60240;BME280;46102;39.012;-7.064;2022-12-18T06:11:51;99237.59;;;8.14;100.00
60240;BME280;46102;39.012;-7.064;2022-12-18T06:13:54;99242.25;;;8.13;100.00
60240;BME280;46102;39.012;-7.064;2022-12-18T06:15:55;99239.53;;;8.13;100.00
60240;BME280;46102;39.012;-7.064;2022-12-18T06:17:55;99240.34;;;8.14;100.00
60240;BME280;46102;39.012;-7.064;2022-12-18T06:19:56;99242.31;;;8.08;100.00
60240;BME280;46102;39.012;-7.064;2022-12-18T06:21:57;99249.66;;;8.08;100.00
60240;BME280;46102;39.012;-7.064;2022-12-18T06:23:59;99249.41;;;8.09;100.00
60240;BME280;46102;39.012;-7.064;2022-12-18T06:26:05;99245.03;;;8.08;100.00
60240;BME280;46102;39.012;-7.064;2022-12-18T06:28:06;99247.78;;;8.08;100.00
60240;BME280;46102;39.012;-7.064;2022-12-18T06:30:07;99246.13;;;8.07;100.00
60240;BME280;46102;39.012;-7.064;2022-12-18T06:32:08;99247.78;;;8.08;100.00
60240;BME280;46102;39.012;-7.064;2022-12-18T06:34:09;99242.84;;;8.05;100.00
60240;BME280;46102;39.012;-7.064;2022-12-18T06:36:12;99244.53;;;8.01;100.00
60240;BME280;46102;39.012;-7.064;2022-12-18T06:38:13;99240.44;;;7.99;100.00
60240;BME280;46102;39.012;-7.064;2022-12-18T06:40:14;99234.97;;;7.99;100.00
60240;BME280;46102;39.012;-7.064;2022-12-18T06:42:14;99240.44;;;7.99;100.00
60240;BME280;46102;39.012;-7.064;2022-12-18T06:44:15;99248.63;;;7.99;100.00
60240;BME280;46102;39.012;-7.064;2022-12-18T06:46:16;99255.22;;;7.98;100.00
60240;BME280;46102;39.012;-7.064;2022-12-18T06:48:17;99258.75;;;7.98;100.00
60240;BME280;46102;39.012;-7.064;2022-12-18T06:50:17;99263.41;;;7.98;100.00
60240;BME280;46102;39.012;-7.064;2022-12-18T06:52:18;99270.50;;;7.99;100.00
60240;BME280;46102;39.012;-7.064;2022-12-18T06:54:19;99265.03;;;7.99;100.00
60240;BME280;46102;39.012;-7.064;2022-12-18T06:56:19;99266.97;;;7.98;100.00
60240;BME280;46102;39.012;-7.064;2022-12-18T06:58:20;99262.59;;;7.97;100.00
60240;BME280;46102;39.012;-7.064;2022-12-18T07:00:21;99262.59;;;7.97;100.00
60240;BME280;46102;39.012;-7.064;2022-12-18T07:02:22;99262.88;;;7.96;100.00
60240;BME280;46102;39.012;-7.064;2022-12-18T07:04:27;99264.81;;;7.95;100.00
60240;BME280;46102;39.012;-7.064;2022-12-18T07:06:28;99265.34;;;7.92;100.00
60240;BME280;46102;39.012;-7.064;2022-12-18T07:08:30;99269.19;;;7.91;100.00
60240;BME280;46102;39.012;-7.064;2022-12-18T07:10:31;99265.66;;;7.90;100.00
60240;BME280;46102;39.012;-7.064;2022-12-18T07:12:31;99268.38;;;7.90;100.00
60240;BME280;46102;39.012;-7.064;2022-12-18T07:14:32;99269.19;;;7.91;100.00
60240;BME280;46102;39.012;-7.064;2022-12-18T07:16:33;99265.94;;;7.89;100.00
60240;BME280;46102;39.012;-7.064;2022-12-18T07:18:34;99262.66;;;7.87;100.00
60240;BME280;46102;39.012;-7.064;2022-12-18T07:20:36;99262.66;;;7.87;100.00
60240;BME280;46102;39.012;-7.064;2022-12-18T07:22:36;99253.34;;;7.88;100.00
60240;BME280;46102;39.012;-7.064;2022-12-18T07:24:37;99263.19;;;7.89;100.00
60240;BME280;46102;39.012;-7.064;2022-12-18T07:26:38;99259.34;;;7.90;100.00
60240;BME280;46102;39.012;-7.064;2022-12-18T07:28:40;99261.53;;;7.88;100.00
60240;BME280;46102;39.012;-7.064;2022-12-18T07:30:41;99265.13;;;7.88;100.00
60240;BME280;46102;39.012;-7.064;2022-12-18T07:32:42;99267.31;;;7.86;100.00
60240;BME280;46102;39.012;-7.064;2022-12-18T07:34:43;99279.03;;;7.87;100.00
60240;BME280;46102;39.012;-7.064;2022-12-18T07:36:44;99276.03;;;7.88;100.00
60240;BME280;46102;39.012;-7.064;2022-12-18T07:38:46;99286.97;;;7.88;100.00
60240;BME280;46102;39.012;-7.064;2022-12-18T07:40:48;99278.47;;;7.90;100.00
60240;BME280;46102;39.012;-7.064;2022-12-18T07:42:48;99280.66;;;7.88;100.00
60240;BME280;46102;39.012;-7.064;2022-12-18T07:44:49;99278.25;;;7.86;100.00
60240;BME280;46102;39.012;-7.064;2022-12-18T07:46:50;99278.25;;;7.86;100.00
60240;BME280;46102;39.012;-7.064;2022-12-18T07:48:50;99283.94;;;7.90;100.00
60240;BME280;46102;39.012;-7.064;2022-12-18T07:50:51;99284.78;;;7.90;100.00
60240;BME280;46102;39.012;-7.064;2022-12-18T07:52:52;99283.38;;;7.93;100.00
60240;BME280;46102;39.012;-7.064;2022-12-18T07:54:53;99286.09;;;7.98;100.00
60240;BME280;46102;39.012;-7.064;2022-12-18T07:56:53;99293.72;;;8.01;100.00
60240;BME280;46102;39.012;-7.064;2022-12-18T07:58:54;99307.06;;;8.08;100.00
60240;BME280;46102;39.012;-7.064;2022-12-18T08:01:05;99308.41;;;8.16;100.00
60240;BME280;46102;39.012;-7.064;2022-12-18T08:03:06;99315.97;;;8.24;100.00
60240;BME280;46102;39.012;-7.064;2022-12-18T08:05:07;99309.94;;;8.32;100.00
60240;BME280;46102;39.012;-7.064;2022-12-18T08:07:08;99312.91;;;8.41;100.00
60240;BME280;46102;39.012;-7.064;2022-12-18T08:09:10;99313.13;;;8.49;99.73
60240;BME280;46102;39.012;-7.064;2022-12-18T08:11:10;99311.13;;;8.60;99.30
60240;BME280;46102;39.012;-7.064;2022-12-18T08:13:11;99317.31;;;8.71;98.25
60240;BME280;46102;39.012;-7.064;2022-12-18T08:15:12;99315.09;;;8.78;97.25
60240;BME280;46102;39.012;-7.064;2022-12-18T08:17:12;99312.00;;;8.85;96.83
60240;BME280;46102;39.012;-7.064;2022-12-18T08:19:13;99318.78;;;8.92;96.15
60240;BME280;46102;39.012;-7.064;2022-12-18T08:21:19;99313.72;;;9.05;95.99
60240;BME280;46102;39.012;-7.064;2022-12-18T08:23:21;99312.72;;;9.25;95.38
60240;BME280;46102;39.012;-7.064;2022-12-18T08:25:22;99319.16;;;9.39;93.82
60240;BME280;46102;39.012;-7.064;2022-12-18T08:27:23;99316.81;;;9.51;93.45
60240;BME280;46102;39.012;-7.064;2022-12-18T08:29:24;99317.34;;;9.53;92.81
60240;BME280;46102;39.012;-7.064;2022-12-18T08:31:25;99323.56;;;9.59;92.34
60240;BME280;46102;39.012;-7.064;2022-12-18T08:33:26;99321.94;;;9.82;92.13
60240;BME280;46102;39.012;-7.064;2022-12-18T08:35:27;99326.19;;;10.12;91.11
60240;BME280;46102;39.012;-7.064;2022-12-18T08:37:28;99329.84;;;10.46;88.71
60240;BME280;46102;39.012;-7.064;2022-12-18T08:39:29;99343.59;;;10.78;86.90
60240;BME280;46102;39.012;-7.064;2022-12-18T08:41:29;99346.72;;;11.04;84.94
60240;BME280;46102;39.012;-7.064;2022-12-18T08:43:30;99351.81;;;11.44;83.73
60240;BME280;46102;39.012;-7.064;2022-12-18T08:45:50;99349.69;;;12.10;80.05
60240;BME280;46102;39.012;-7.064;2022-12-18T08:47:50;99342.22;;;12.83;76.31
60240;BME280;46102;39.012;-7.064;2022-12-18T08:49:51;99355.69;;;13.70;73.70
60240;BME280;46102;39.012;-7.064;2022-12-18T08:51:54;99353.41;;;14.29;71.03
60240;BME280;46102;39.012;-7.064;2022-12-18T08:53:55;99352.50;;;14.60;68.64
60240;BME280;46102;39.012;-7.064;2022-12-18T08:55:56;99354.13;;;14.87;67.20
60240;BME280;46102;39.012;-7.064;2022-12-18T08:57:57;99348.25;;;15.06;65.36
60240;BME280;46102;39.012;-7.064;2022-12-18T08:59:58;99355.91;;;15.09;64.31
60240;BME280;46102;39.012;-7.064;2022-12-18T09:01:59;99367.44;;;15.03;64.00
60240;BME280;46102;39.012;-7.064;2022-12-18T09:03:59;99364.38;;;14.87;64.21
60240;BME280;46102;39.012;-7.064;2022-12-18T09:06:00;99362.56;;;14.56;64.47
60240;BME280;46102;39.012;-7.064;2022-12-18T09:08:01;99370.81;;;14.30;65.47
60240;BME280;46102;39.012;-7.064;2022-12-18T09:10:02;99374.97;;;14.10;65.67
60240;BME280;46102;39.012;-7.064;2022-12-18T09:12:03;99360.03;;;14.11;66.27
60240;BME280;46102;39.012;-7.064;2022-12-18T09:14:03;99355.22;;;14.25;65.61
60240;BME280;46102;39.012;-7.064;2022-12-18T09:16:04;99351.66;;;14.42;65.23
60240;BME280;46102;39.012;-7.064;2022-12-18T09:18:05;99357.56;;;14.67;65.11
60240;BME280;46102;39.012;-7.064;2022-12-18T09:20:06;99353.50;;;14.73;63.03
60240;BME280;46102;39.012;-7.064;2022-12-18T09:22:07;99347.47;;;14.71;63.74
60240;BME280;46102;39.012;-7.064;2022-12-18T09:24:12;99360.13;;;14.72;63.70
60240;BME280;46102;39.012;-7.064;2022-12-18T09:26:13;99361.13;;;14.76;64.43
60240;BME280;46102;39.012;-7.064;2022-12-18T09:28:16;99373.31;;;14.75;64.60
60240;BME280;46102;39.012;-7.064;2022-12-18T09:30:17;99369.41;;;14.58;64.18
60240;BME280;46102;39.012;-7.064;2022-12-18T09:32:18;99375.75;;;14.59;64.47
60240;BME280;46102;39.012;-7.064;2022-12-18T09:34:18;99379.25;;;14.42;64.36
60240;BME280;46102;39.012;-7.064;2022-12-18T09:36:22;99385.81;;;14.55;65.01
60240;BME280;46102;39.012;-7.064;2022-12-18T09:38:22;99382.88;;;14.60;64.58
60240;BME280;46102;39.012;-7.064;2022-12-18T09:40:28;99389.03;;;14.48;64.27
60240;BME280;46102;39.012;-7.064;2022-12-18T09:42:33;99392.75;;;14.44;65.10
60240;BME280;46102;39.012;-7.064;2022-12-18T09:44:41;99401.84;;;14.53;65.16
60240;BME280;46102;39.012;-7.064;2022-12-18T09:46:47;99403.38;;;14.59;64.74
60240;BME280;46102;39.012;-7.064;2022-12-18T09:48:51;99401.88;;;14.79;64.18
60240;BME280;46102;39.012;-7.064;2022-12-18T09:50:56;99398.81;;;14.89;64.07
60240;BME280;46102;39.012;-7.064;2022-12-18T09:53:02;99399.13;;;15.05;63.78
60240;BME280;46102;39.012;-7.064;2022-12-18T09:55:15;99399.13;;;15.14;63.49
60240;BME280;46102;39.012;-7.064;2022-12-18T09:57:22;99400.59;;;15.20;63.02
60240;BME280;46102;39.012;-7.064;2022-12-18T09:59:34;99400.25;;;15.13;62.84
60240;BME280;46102;39.012;-7.064;2022-12-18T10:01:36;99408.38;;;15.18;62.70
60240;BME280;46102;39.012;-7.064;2022-12-18T10:03:36;99415.84;;;15.26;63.32
60240;BME280;46102;39.012;-7.064;2022-12-18T10:08:01;99411.34;;;15.69;61.92
60240;BME280;46102;39.012;-7.064;2022-12-18T10:10:18;99409.72;;;15.85;61.72
60240;BME280;46102;39.012;-7.064;2022-12-18T10:12:34;99425.94;;;15.95;60.50
60240;BME280;46102;39.012;-7.064;2022-12-18T10:17:00;99427.66;;;16.09;60.27
60240;BME280;46102;39.012;-7.064;2022-12-18T10:19:25;99430.16;;;16.01;60.31
60240;BME280;46102;39.012;-7.064;2022-12-18T10:26:06;99445.94;;;16.60;59.54
60240;BME280;46102;39.012;-7.064;2022-12-18T10:28:10;99442.16;;;16.65;58.90
60240;BME280;46102;39.012;-7.064;2022-12-18T10:30:15;99448.25;;;16.58;58.75
60240;BME280;46102;39.012;-7.064;2022-12-18T10:32:22;99449.44;;;16.49;59.03
60240;BME280;46102;39.012;-7.064;2022-12-18T10:34:23;99453.03;;;16.49;59.52
60240;BME280;46102;39.012;-7.064;2022-12-18T10:36:24;99452.50;;;16.56;60.06
60240;BME280;46102;39.012;-7.064;2022-12-18T10:38:30;99448.94;;;16.55;59.44
60240;BME280;46102;39.012;-7.064;2022-12-18T10:40:33;99449.22;;;16.33;59.76
60240;BME280;46102;39.012;-7.064;2022-12-18T10:43:03;99446.84;;;16.43;60.23
60240;BME280;46102;39.012;-7.064;2022-12-18T10:45:11;99442.81;;;16.41;59.62
60240;BME280;46102;39.012;-7.064;2022-12-18T10:47:15;99430.44;;;16.38;60.01
60240;BME280;46102;39.012;-7.064;2022-12-18T10:49:26;99432.94;;;16.31;59.82
60240;BME280;46102;39.012;-7.064;2022-12-18T10:51:28;99437.38;;;16.23;60.13
60240;BME280;46102;39.012;-7.064;2022-12-18T10:53:31;99432.13;;;16.31;61.29
60240;BME280;46102;39.012;-7.064;2022-12-18T10:55:36;99433.69;;;16.40;61.15
60240;BME280;46102;39.012;-7.064;2022-12-18T10:57:40;99438.91;;;16.63;59.91
60240;BME280;46102;39.012;-7.064;2022-12-18T10:59:52;99421.09;;;16.73;58.72
60240;BME280;46102;39.012;-7.064;2022-12-18T11:01:56;99428.69;;;16.55;59.31
60240;BME280;46102;39.012;-7.064;2022-12-18T11:08:20;99422.16;;;16.59;60.03
60240;BME280;46102;39.012;-7.064;2022-12-18T11:10:28;99423.25;;;16.67;59.32
60240;BME280;46102;39.012;-7.064;2022-12-18T11:12:30;99420.25;;;16.81;59.25
60240;BME280;46102;39.012;-7.064;2022-12-18T11:14:33;99418.41;;;16.64;59.10
60240;BME280;46102;39.012;-7.064;2022-12-18T11:16:36;99420.81;;;16.65;59.55
60240;BME280;46102;39.012;-7.064;2022-12-18T11:18:43;99421.50;;;16.62;60.19
60240;BME280;46102;39.012;-7.064;2022-12-18T11:20:50;99420.97;;;16.69;59.17